Pagina principale
METAR-TAF:

METAR-TAF

Aeroporti :

Aeroporto di Bruxelles-National. Zaventem

Bruxelles, Belgio

latitudine: 50-54N, longitudine: 004-32E, altezza: 55 m

Osservazione

Il bollettino è stato emesso 28 minuti fa, alle 17:20 UTC
Vento 3 kt da nord
Temperature 14°C
Umidità 77%
Pressione 1025 hPa
Visibilità 10 km o più
Nubi sparse ad un'altezza di 2900 ft
Nuvoloso ad un'altezza di 4000 ft

METAR: EBBR 191720Z 36003KT 9999 SCT029 BKN040 14/10 Q1025 NOSIG

Ora: 19:48 (17:48 UTC)

Previsione

Il bollettino è stato emesso 38 minuti fa, alle 17:10 UTC
Previsione valida dal 19 alle 18 UTC al 20 alle 24 UTC
Vento 5 kt da nord
Visibilità 10 km o più
Poco nuvoloso ad un'altezza di 2500 ft
Nubi sparse ad un'altezza di 4000 ft
Probabilità 30% :
Temporaneamente
dal 20 alle 03 UTC al 20 alle 07 UTC
Visibilità: 1400 m
foschia, banchi di nebbia

TAF: EBBR 191710Z 1918/2024 01005KT 9999 FEW025 SCT040 PROB30 TEMPO 2003/2007 1400 BR BCFG

Osservazioni e previsioni meteorologiche di più di 4000 aeroporti (messaggi METAR e TAF).

Le stazioni disponibili sono rappresentate dai dischi gialli e rossi sulla carta.

Puntare il mouse per vedere il nome della stazione.

Clicca sopra per visualizzare le osservazioni e previsioni meteorologiche.

Per cambiare la mappa : fare clic sui pulsanti verdi con una croce nera per ingrandire, il pulsante verde con un trattino per diminuire, o sulla freccia verde per le mappe adiacenti.


METAR-TAF: